Time;durP1;ratioP1;P1;durP2;ratioP2;P2;SDS_P1;SDS_P2;PMS_P1;PMS_P2;Temp;Humidity;BMP_temperature;BMP_pressure;BME280_temperature;BME280_humidity;BME280_pressure;Samples;Min_cycle;Max_cycle;Signal;HPM_P1;HPM_P2
2022/01/26 00:07:16;;;;;;;;;38.00;32.25;;;;;4.51;63.01;103011.34;5095896;27;45294;-73
2022/01/26 00:09:42;;;;;;;;;34.50;27.00;;;;;4.70;62.80;103042.88;5110362;27;45574;-71
2022/01/26 00:12:09;;;;;;;;;34.25;27.75;;;;;4.55;62.77;103019.44;5102939;27;45505;-70
2022/01/26 00:14:40;;;;;;;;;32.75;31.50;;;;;4.68;62.95;103045.38;5104098;27;45541;-71
2022/01/26 00:17:06;;;;;;;;;42.25;32.25;;;;;4.63;62.54;103043.31;5113158;27;45477;-74
2022/01/26 00:19:47;;;;;;;;;39.00;31.00;;;;;4.64;62.56;103053.75;5098389;27;45536;-73
2022/01/26 00:22:24;;;;;;;;;38.75;34.25;;;;;4.53;62.43;103041.84;5113728;27;45675;-73
2022/01/26 00:25:06;;;;;;;;;38.00;31.75;;;;;4.27;63.23;102992.53;5113964;27;45486;-71
2022/01/26 00:27:50;;;;;;;;;39.00;32.00;;;;;4.50;62.53;103027.75;5107533;27;45569;-76
2022/01/26 00:38:42;;;;;;;;;51.50;36.25;;;;;4.51;62.98;103045.09;5102216;27;45527;-76
2022/01/26 00:41:17;;;;;;;;;42.50;32.75;;;;;4.51;62.93;103058.06;5108385;27;45463;-71
2022/01/26 00:43:53;;;;;;;;;44.00;35.50;;;;;4.42;63.03;103053.22;5115883;27;45597;-72
2022/01/26 00:46:19;;;;;;;;;45.25;35.50;;;;;4.36;62.32;103042.44;5115083;27;46132;-72
2022/01/26 00:48:46;;;;;;;;;38.75;32.00;;;;;3.85;63.13;102957.88;5104660;27;45779;-73
2022/01/26 00:51:16;;;;;;;;;42.50;35.25;;;;;4.37;62.91;103050.31;5098197;27;45424;-72
2022/01/26 00:53:46;;;;;;;;;45.00;35.00;;;;;4.25;63.64;103033.97;5096313;27;45429;-75
2022/01/26 00:56:12;;;;;;;;;42.25;34.00;;;;;4.36;63.40;103056.28;5110890;27;45589;-74
2022/01/26 00:58:38;;;;;;;;;41.75;34.00;;;;;4.30;63.35;103049.84;5111669;27;45458;-76
2022/01/26 01:01:05;;;;;;;;;39.25;30.25;;;;;4.22;62.95;103026.91;5099421;27;45412;-72
2022/01/26 01:03:34;;;;;;;;;31.00;28.75;;;;;3.99;63.70;102990.78;5115840;27;45208;-70
2022/01/26 01:06:09;;;;;;;;;44.50;34.25;;;;;4.37;63.43;103055.50;5106328;27;45538;-71
2022/01/26 01:08:35;;;;;;;;;33.50;28.50;;;;;4.39;63.40;103060.78;5100727;27;45370;-72
2022/01/26 01:11:01;;;;;;;;;44.25;31.75;;;;;4.40;62.95;103052.22;5096214;27;45533;-71
2022/01/26 01:13:35;;;;;;;;;39.00;32.25;;;;;4.28;63.05;103039.34;5111523;27;45385;-73
2022/01/26 01:16:02;;;;;;;;;39.75;28.50;;;;;4.26;62.85;103033.16;5097870;27;46570;-76
2022/01/26 01:18:40;;;;;;;;;33.50;30.75;;;;;4.38;63.32;103051.22;5102913;27;45475;-76
2022/01/26 01:24:17;;;;;;;;;43.75;31.75;;;;;4.40;63.14;103034.94;5108582;27;45629;-76
2022/01/26 01:31:59;;;;;;;;;44.75;34.75;;;;;4.20;63.18;103053.50;5119183;27;45494;-75
2022/01/26 01:34:35;;;;;;;;;41.00;35.00;;;;;4.19;63.14;103069.88;5099458;27;45525;-74
2022/01/26 01:37:05;;;;;;;;;42.50;34.00;;;;;4.08;64.00;103032.88;5096908;27;45464;-75
2022/01/26 01:39:33;;;;;;;;;37.50;32.50;;;;;3.77;63.23;102975.50;5117346;27;45288;-75
2022/01/26 01:42:00;;;;;;;;;35.00;31.25;;;;;4.22;63.34;103055.44;5111949;27;45659;-73
2022/01/26 01:44:26;;;;;;;;;39.75;31.75;;;;;3.84;63.37;102972.50;5103886;27;45490;-74
2022/01/26 01:46:53;;;;;;;;;36.75;31.00;;;;;4.22;63.49;103038.94;5105966;27;45727;-74
2022/01/26 01:49:18;;;;;;;;;42.75;31.50;;;;;4.21;63.03;103038.03;5122474;27;45310;-73
2022/01/26 01:51:53;;;;;;;;;44.75;32.00;;;;;4.32;63.16;103051.72;5120550;27;45341;-76
2022/01/26 01:54:19;;;;;;;;;40.75;31.00;;;;;4.32;62.81;103069.88;5089936;27;45706;-74
2022/01/26 01:56:54;;;;;;;;;41.25;33.25;;;;;4.15;62.73;103027.28;5117856;27;45409;-75
2022/01/26 01:59:30;;;;;;;;;37.50;31.25;;;;;4.32;62.85;103067.28;5108855;27;45565;-75
2022/01/26 02:01:57;;;;;;;;;35.50;30.00;;;;;4.12;63.18;103029.66;5112313;27;45283;-77
2022/01/26 02:04:23;;;;;;;;;36.25;29.50;;;;;4.35;63.27;103070.06;5108497;27;45363;-75
2022/01/26 02:06:49;;;;;;;;;41.00;32.00;;;;;4.35;63.31;103074.38;5100752;27;45323;-75
2022/01/26 02:09:15;;;;;;;;;34.25;28.75;;;;;4.29;63.76;103058.41;5115552;27;45548;-73
2022/01/26 02:11:46;;;;;;;;;38.50;32.00;;;;;4.28;63.04;103062.69;5100785;27;45460;-76
2022/01/26 02:14:18;;;;;;;;;33.25;31.75;;;;;4.35;63.24;103082.16;5099611;27;45305;-74
2022/01/26 02:16:51;;;;;;;;;32.75;31.00;;;;;4.31;63.79;103062.88;5098374;27;46023;-75
2022/01/26 02:49:45;;;;;;;;;39.75;28.25;;;;;4.12;63.03;103073.75;5117557;27;45978;-72
2022/01/26 03:04:56;;;;;;;;;33.75;27.50;;;;;3.76;63.27;103047.19;5110675;27;45395;-73
2022/01/26 03:07:39;;;;;;;;;32.00;28.25;;;;;3.85;64.04;103051.22;5119668;27;45759;-74
2022/01/26 03:10:31;;;;;;;;;34.75;30.75;;;;;3.69;63.74;103011.28;5097262;27;46442;-73
2022/01/26 03:13:02;;;;;;;;;38.50;32.00;;;;;3.91;64.26;103054.19;5097693;27;45402;-73
2022/01/26 03:15:40;;;;;;;;;35.75;30.25;;;;;3.73;64.11;103009.81;5101030;27;45442;-73
2022/01/26 03:18:45;;;;;;;;;39.75;29.50;;;;;3.98;63.88;103053.81;5109840;27;45518;-72
2022/01/26 03:20:54;;;;;;;;;34.25;29.50;;;;;3.72;63.58;103003.72;5115089;27;45950;-73
2022/01/26 03:36:37;;;;;;;;;30.75;27.25;;;;;3.98;63.01;103000.22;5090464;27;45487;-71
2022/01/26 03:39:09;;;;;;;;;36.25;31.00;;;;;4.18;62.71;103037.84;5086975;27;46076;-74
2022/01/26 03:41:49;;;;;;;;;35.50;31.00;;;;;4.04;62.85;103026.56;5077309;27;45445;-71
2022/01/26 03:44:15;;;;;;;;;42.75;35.25;;;;;3.75;63.29;102997.81;5116316;27;45496;-72
2022/01/26 03:46:41;;;;;;;;;43.25;31.50;;;;;3.77;63.45;102999.75;5116972;27;45452;-71
2022/01/26 03:49:14;;;;;;;;;45.25;35.50;;;;;3.97;63.84;103039.94;5098786;27;45443;-72
2022/01/26 03:51:41;;;;;;;;;37.75;29.75;;;;;4.00;63.94;103045.31;5096163;27;45406;-72
2022/01/26 03:54:09;;;;;;;;;39.75;29.50;;;;;4.05;63.83;103043.03;5104752;27;45748;-73
2022/01/26 03:56:35;;;;;;;;;39.75;31.75;;;;;4.03;63.44;103055.00;5095307;27;45448;-72
2022/01/26 03:59:02;;;;;;;;;43.25;32.00;;;;;3.86;64.24;103037.44;5098237;27;45275;-71
2022/01/26 04:01:28;;;;;;;;;39.25;32.25;;;;;3.65;64.14;103006.69;5097192;27;45389;-71
2022/01/26 04:03:54;;;;;;;;;43.75;33.75;;;;;3.80;64.87;103033.66;5101840;27;45800;-72
2022/01/26 04:06:20;;;;;;;;;47.75;34.50;;;;;3.92;64.07;103045.63;5115485;27;45377;-71
2022/01/26 04:08:46;;;;;;;;;47.50;34.50;;;;;3.70;63.77;103000.16;5114369;27;45481;-72
2022/01/26 04:11:33;;;;;;;;;43.00;35.50;;;;;4.00;63.21;103039.25;5108061;27;45726;-73
2022/01/26 04:14:00;;;;;;;;;41.25;35.50;;;;;4.06;63.31;103047.44;5111412;27;45434;-71
2022/01/26 04:16:25;;;;;;;;;46.50;36.75;;;;;3.96;63.84;103016.50;5099392;27;45333;-74
2022/01/26 04:18:53;;;;;;;;;30.25;29.75;;;;;4.13;63.10;103039.25;5115460;27;45283;-75
2022/01/26 04:21:30;;;;;;;;;38.50;33.75;;;;;4.16;62.74;103026.47;5115496;27;46664;-74
2022/01/26 04:26:29;;;;;;;;;47.00;37.25;;;;;4.01;62.93;103003.06;5116211;27;45501;-76
2022/01/26 04:29:05;;;;;;;;;53.75;41.25;;;;;3.95;62.97;103022.50;5100340;27;45448;-75
2022/01/26 04:31:31;;;;;;;;;54.00;41.50;;;;;4.04;63.53;103033.47;5093977;27;47404;-72
2022/01/26 04:33:56;;;;;;;;;58.67;41.67;;;;;3.93;63.03;103027.56;5111380;27;45435;-71
2022/01/26 04:36:28;;;;;;;;;53.50;40.00;;;;;3.82;63.31;103013.03;5096490;27;45553;-71
2022/01/26 04:38:58;;;;;;;;;57.00;44.00;;;;;3.79;63.07;103017.97;5095117;27;45460;-73
2022/01/26 04:43:57;;;;;;;;;58.33;44.67;;;;;3.65;63.64;103010.97;5094761;27;45389;-72
2022/01/26 04:46:24;;;;;;;;;61.00;42.33;;;;;3.65;63.41;103014.47;5095098;27;45516;-73
2022/01/26 04:48:50;;;;;;;;;63.00;44.00;;;;;3.63;63.67;103010.91;5095330;27;45440;-73
2022/01/26 04:51:16;;;;;;;;;60.33;43.00;;;;;3.59;63.58;103014.06;5096486;27;45679;-71
2022/01/26 04:53:41;;;;;;;;;59.67;44.67;;;;;3.68;63.12;103030.25;5113292;27;45536;-73
2022/01/26 04:56:07;;;;;;;;;60.67;47.00;;;;;3.51;63.46;102986.72;5113950;27;45616;-72
2022/01/26 04:58:33;;;;;;;;;56.67;41.67;;;;;3.62;63.41;103016.88;5110809;27;45516;-73
2022/01/26 05:00:58;;;;;;;;;61.33;46.67;;;;;3.68;63.23;103034.50;5112685;27;45941;-72
2022/01/26 05:03:24;;;;;;;;;58.00;45.25;;;;;3.70;63.64;103030.31;5103320;27;45547;-71
2022/01/26 05:05:49;;;;;;;;;61.00;43.00;;;;;3.50;63.88;102975.47;5110180;27;45589;-72
2022/01/26 05:08:15;;;;;;;;;58.00;43.33;;;;;3.78;63.01;103023.97;5109775;27;45410;-72
2022/01/26 05:10:43;;;;;;;;;59.33;44.67;;;;;3.75;62.71;103027.25;5097256;27;45638;-72
2022/01/26 05:13:14;;;;;;;;;55.00;41.33;;;;;3.75;63.38;103021.16;5100600;27;45564;-75
2022/01/26 05:15:41;;;;;;;;;55.33;41.33;;;;;3.67;63.63;103012.00;5107483;27;45377;-73
2022/01/26 05:18:06;;;;;;;;;48.33;40.00;;;;;3.72;63.24;103010.59;5095199;27;45444;-73
2022/01/26 05:20:34;;;;;;;;;61.25;40.50;;;;;3.79;63.13;103017.97;5093353;27;45889;-74
2022/01/26 05:22:59;;;;;;;;;60.33;46.00;;;;;3.75;63.14;103019.50;5098848;27;45498;-74
2022/01/26 05:25:25;;;;;;;;;61.00;47.00;;;;;3.42;63.42;102962.81;5098657;27;45397;-73
2022/01/26 05:27:51;;;;;;;;;60.33;46.00;;;;;3.77;62.97;103028.28;5114072;27;45316;-74
2022/01/26 05:30:17;;;;;;;;;54.00;41.00;;;;;3.71;62.92;103001.94;5093167;27;46919;-72
2022/01/26 05:32:43;;;;;;;;;59.33;43.33;;;;;3.68;63.36;102986.19;5095489;27;45323;-72
2022/01/26 05:35:09;;;;;;;;;55.67;40.67;;;;;3.97;62.65;103014.00;5094777;27;45456;-77
2022/01/26 05:37:35;;;;;;;;;58.67;43.67;;;;;3.83;62.25;102975.91;5116399;27;45345;-75
2022/01/26 05:40:02;;;;;;;;;50.50;41.00;;;;;4.10;61.89;103001.84;5118980;27;46088;-72
2022/01/26 05:42:29;;;;;;;;;56.00;41.75;;;;;3.95;61.67;102968.03;5115706;27;45767;-75
2022/01/26 05:45:00;;;;;;;;;57.75;44.25;;;;;4.09;61.97;103002.66;5081111;27;45424;-75
2022/01/26 05:47:26;;;;;;;;;59.00;44.33;;;;;3.85;61.81;102951.00;5075460;27;45490;-78
2022/01/26 05:49:52;;;;;;;;;60.33;46.00;;;;;3.94;61.48;102966.22;5110981;27;45898;-74
2022/01/26 05:52:17;;;;;;;;;61.33;44.33;;;;;4.22;61.91;103002.63;5099370;27;45457;-77
2022/01/26 05:54:43;;;;;;;;;61.75;44.25;;;;;4.03;62.40;102962.56;5100314;27;45569;-76
2022/01/26 05:57:09;;;;;;;;;56.50;42.75;;;;;4.27;61.83;103000.31;5099340;27;45508;-76
2022/01/26 05:59:35;;;;;;;;;61.00;42.25;;;;;4.03;61.84;102954.78;5113251;27;45700;-76
2022/01/26 06:02:01;;;;;;;;;61.67;47.00;;;;;4.41;60.80;102999.50;5115381;27;45716;-78
2022/01/26 06:04:28;;;;;;;;;65.33;44.00;;;;;4.27;60.80;102984.75;5107873;27;45505;-75
2022/01/26 06:06:54;;;;;;;;;61.00;44.00;;;;;3.56;60.86;102887.81;5110098;27;45523;-75
2022/01/26 06:09:20;;;;;;;;;64.33;48.33;;;;;4.14;60.97;103009.03;5117071;27;45393;-74
2022/01/26 06:11:45;;;;;;;;;60.67;47.00;;;;;3.83;61.08;102975.91;5102875;27;45426;-75
2022/01/26 06:14:11;;;;;;;;;53.67;46.00;;;;;3.95;61.91;103001.75;5123411;27;45540;-74
2022/01/26 06:16:37;;;;;;;;;67.33;48.00;;;;;3.86;61.43;103014.09;5108774;27;45521;-76
2022/01/26 06:19:03;;;;;;;;;66.00;47.67;;;;;3.76;61.63;103025.56;5093547;27;46946;-75
2022/01/26 06:21:29;;;;;;;;;65.33;48.00;;;;;3.49;62.73;103001.28;5099946;27;45298;-79
2022/01/26 06:23:54;;;;;;;;;67.33;48.33;;;;;3.71;62.81;103030.44;5096324;27;46002;-77
2022/01/26 06:26:20;;;;;;;;;66.67;48.00;;;;;3.77;63.00;103037.72;5099973;27;45363;-78
2022/01/26 06:28:46;;;;;;;;;65.67;50.33;;;;;3.61;62.80;103013.38;5102536;27;45740;-78
2022/01/26 06:31:15;;;;;;;;;61.67;47.67;;;;;3.75;62.44;103018.56;5102251;27;45261;-77
2022/01/26 06:33:41;;;;;;;;;64.67;45.33;;;;;3.86;62.82;103032.25;5103611;27;45393;-75
2022/01/26 06:36:12;;;;;;;;;56.67;45.00;;;;;4.06;62.84;103056.88;5102288;27;45334;-72
2022/01/26 06:38:48;;;;;;;;;62.67;48.00;;;;;3.83;62.21;103007.91;5128027;27;45490;-74
2022/01/26 06:41:22;;;;;;;;;55.00;43.00;;;;;4.13;62.23;103054.81;5124467;27;45454;-74
2022/01/26 06:43:52;;;;;;;;;61.00;48.00;;;;;4.18;61.45;103050.81;5125936;27;45604;-76
2022/01/26 06:46:27;;;;;;;;;64.33;48.67;;;;;4.28;62.46;103065.28;5126135;27;45378;-73
